Aviation Digital Data Service (ADDS)

Output produced by METARs form (1347 UTC 26 May 2018)
found at http://www.aviationweather.gov/adds/metars/
 
EIME 261300Z 06010KT 9999 FEW022 SCT160 BKN250 16/11 Q1023
EIKN 261330Z 07012KT 020V100 9999 BKN035 BKN300 20/11 Q1023 NOSIG
TAF EIKN 261100Z 2612/2712 06012KT 9999 FEW020 BKN045 
     TEMPO 2707/2710 -SHRA BKN040CB 
     PROB30 
     TEMPO 2707/2710 5000 SHRA 
     BECMG 2708/2711 09012KT
       
EICK 261330Z 05013KT 9999 FEW014 BKN016 BKN033 17/13 Q1021 NOSIG
TAF EICK 261100Z 2612/2712 06012KT 9999 BKN020 
     BECMG 2612/2615 09010KT 
     BECMG 2618/2621 02007KT 
     TEMPO 2621/2701 5000 -SHRA BKN012 SCT018CB 
     TEMPO 2701/2709 4000 SHRA BKN012 BKN025CB 
     PROB40 
     TEMPO 2701/2708 3000 TSRA BKN007 
     PROB30 
     TEMPO 2701/2707 +SHRA 
     BECMG 2703/2706 05012KT 
     BECMG 2707/2710 08012KT 
     TEMPO 2709/2712 -SHRA BKN008
       
EIDL 261330Z 06008KT 330V140 9999 FEW045 20/12 Q1025
EIDW 261330Z 07012KT 9999 FEW018 SCT035 BKN300 17/11 Q1023 NOSIG
TAF EIDW 261100Z 2612/2712 05015KT 9999 FEW020 BKN040 
     PROB30 
     TEMPO 2615/2618 7000 -SHRA SCT030CB 
     TEMPO 2702/2709 5000 SHRA BKN014 BKN030CB 
     PROB30 
     TEMPO 2704/2708 3000 TSRA 
     BECMG 2709/2712 08010KT
       
EIKY 261330Z 06007KT 020V090 9999 SCT022 BKN030 18/13 Q1022
EINN 261330Z 08010KT 9999 SCT025 BKN036 19/12 Q1022 NOSIG
TAF COR EINN 261115Z 2612/2712 04013KT 9999 FEW015 BKN030 
     PROB30 
     TEMPO 2620/2622 7000 -SHRA BKN014 
     TEMPO 2704/2709 5000 SHRA BKN015 BKN030CB 
     PROB30 
     TEMPO 2704/2708 3000 TSRA 
     BECMG 2706/2709 07008KT 
     BECMG 2709/2712 10010KT
       
EISG 261330Z 06010KT 9999 FEW043 22/12 Q1023
EIWF 261330Z 09011KT 040V110 9999 BKN019 17/13 Q1021